Wardell, Virginia
Current Conditions -  °F | °C
As of 3:15 PM on Monday 24 Nov 2014 (Local Time) from KJFZ Reporting Station
Clear Clear  
Wind Chill: 68°   Ceiling: Unl
Heat Index: 68°   Visibility: 10mi
Dew Point: 39°   Wind: 22mph
Humidity: 35%   Direction: 250°WSW
Pressure: 29.73"   Gusts: 31mph
Location:  37.0714°N, 81.7762°W
Report Text: KJFZ 242015Z AUTO 25019G27KT 190V280 10SM CLR 20/04 A2973 RMK AO2 LTG DSNT S T02010040
Loading
Personal Weather Stations






























Interactive Weather Map New forecast layout! Learn more

10-Day Weather Forecast

Advertisements
Track Severe Weather on mobile